11 agosto 2022

Tempo Codice Tempo metereologico Temp. Vista Base nuvolosa Vento METAR/SPECI
01:25
V
19 °C 10 km+ - 070° 070° 12 kt METAR EHVL 102325Z AUTO 07012KT 9999 NCD 19/17 Q1024 BLU
00:55
V
19 °C 10 km+ - 070° 070° 12 kt METAR EHVL 102255Z AUTO 07012KT 9999 NCD 19/17 Q1024 BLU
00:25
V
18 °C 10 km+ - 070° 070° 10 kt METAR EHVL 102225Z AUTO 07010KT 9999 NCD 18/17 Q1025 BLU

10 agosto 2022

Tempo Codice Tempo metereologico Temp. Vista Base nuvolosa Vento METAR/SPECI
23:55
V
18 °C 10 km+ - 070° 070° 10 kt METAR EHVL 102155Z AUTO 07010KT 9999 NCD 18/17 Q1025 BLU
23:25
V
18 °C 10 km+ - 050° 050° 9 kt METAR EHVL 102125Z AUTO 05009KT 9999 NCD 18/16 Q1025 BLU
22:55
V
17 °C 10 km+ - 050° 050° 10 kt METAR EHVL 102055Z AUTO 05010KT 9999 NCD 17/16 Q1025 BLU
22:25
V
17 °C 10 km+ - 050° 050° 9 kt METAR EHVL 102025Z AUTO 05009KT 9999 NCD 17/16 Q1025 BLU
21:55
V
18 °C 10 km+ - 050° 050° 9 kt METAR EHVL 101955Z AUTO 05009KT 9999 NCD 18/16 Q1025 BLU
21:25
V
18 °C 10 km+ - 050° 050° 9 kt METAR EHVL 101925Z AUTO 05009KT 9999 NCD 18/16 Q1025 BLU
20:55
V
20 °C 10 km+ - 060° 060° 9 kt METAR EHVL 101855Z AUTO 06009KT 9999 NCD 20/16 Q1025 BLU
20:25
V
20 °C 10 km+ - 040° 040° 11 kt METAR EHVL 101825Z AUTO 04011KT 9999 NCD 20/16 Q1025 BLU
19:55
V
21 °C 10 km+ - 050° 050° 12 kt METAR EHVL 101755Z AUTO 05012KT 9999 NCD 21/17 Q1025 BLU
19:25
V
21 °C 10 km+ - 040° 040° 13 kt METAR EHVL 101725Z AUTO 04013KT 9999 NCD 21/17 Q1025 BLU
18:55
V
22 °C 10 km+ - 040° 040° 16 kt METAR EHVL 101655Z AUTO 04016KT 9999 NCD 22/17 Q1025 BLU
18:25
V
21 °C 10 km+ - 040° 040° 17 kt METAR EHVL 101625Z AUTO 04017KT 9999 NCD 21/17 Q1025 BLU
17:55
V
22 °C 10 km+ - 030° 030° 16 kt METAR EHVL 101555Z AUTO 03016KT 9999 NCD 22/17 Q1025 BLU
17:25
V
22 °C 10 km+ - 030° 030° 16 kt METAR EHVL 101525Z AUTO 03016KT 9999 NCD 22/17 Q1026 BLU
16:55
V
23 °C 10 km+ - 030° 030° 17 kt METAR EHVL 101455Z AUTO 03017KT 9999 NCD 23/16 Q1026 BLU
16:25
V
23 °C 10 km+ - 030° 030° 16 kt METAR EHVL 101425Z AUTO 03016KT 9999 NCD 23/17 Q1026 BLU
15:55
V
23 °C 10 km+ - 030° 030° 15 kt METAR EHVL 101355Z AUTO 03015KT 9999 NCD 23/17 Q1026 BLU
15:25
V
23 °C 10 km+ - 030° 030° 15 kt METAR EHVL 101325Z AUTO 03015KT 9999 NCD 23/17 Q1026 BLU
14:55
V
23 °C 10 km+ - 030° 030° 15 kt METAR EHVL 101255Z AUTO 03015KT 9999 NCD 23/17 Q1027 BLU
14:25
V
24 °C 10 km+ - 040° 040° 13 kt METAR EHVL 101225Z AUTO 04013KT 020V090 9999 NCD 24/17 Q1027 BLU
13:55
V
23 °C 10 km+ - 050° 050° 10 kt METAR EHVL 101155Z AUTO 05010KT 010V090 9999 NCD 23/16 Q1027 BLU
13:25
V
23 °C 10 km+ - 070° 070° 10 kt METAR EHVL 101125Z AUTO 07010KT 9999 NCD 23/15 Q1027 BLU
12:55
V
22 °C 10 km+ - 070° 070° 12 kt METAR EHVL 101055Z AUTO 07012KT 9999 NCD 22/16 Q1027 BLU
12:25
V
22 °C 10 km+ - 080° 080° 13 kt METAR EHVL 101025Z AUTO 08013KT 9999 NCD 22/17 Q1028 BLU
11:55
V
21 °C 10 km+ - 080° 080° 13 kt METAR EHVL 100955Z AUTO 08013KT 9999 NCD 21/17 Q1028 BLU
11:25
V
21 °C 10 km+ - 080° 080° 13 kt METAR EHVL 100925Z AUTO 08013KT 050V110 9999 SCT370 21/17 Q1028 BLU
10:55
V
22 °C 10 km+ 37.000 ft 080° 080° 12 kt METAR EHVL 100855Z AUTO 08012KT 9999 BKN370 22/16 Q1028 BLU
10:25
V
20 °C 10 km+ 38.000 ft 080° 080° 11 kt METAR EHVL 100825Z AUTO 08011KT 9999 BKN380 20/16 Q1028 BLU
09:55
V
20 °C 10 km+ 40.000 ft 060° 060° 11 kt METAR EHVL 100755Z AUTO 06011KT 9999 OVC400 20/16 Q1028 BLU
09:25
V
20 °C 10 km+ 39.000 ft 060° 060° 11 kt METAR EHVL 100725Z AUTO 06011KT 9999 OVC390 20/16 Q1028 BLU
08:55
V
19 °C 10 km+ - 050° 050° 10 kt METAR EHVL 100655Z AUTO 05010KT 9999 FEW400 19/16 Q1028 BLU
08:44
V
19 °C 10 km+ - 060° 060° 10 kt METAR EHVL 100644Z AUTO 06010KT 9999 FEW011 19/16 Q1028 BLU
08:30
M
19 °C 10 km+ 1.100 ft 060° 060° 9 kt METAR EHVL 100630Z AUTO 06009KT 9999 BKN011 19/16 Q1028 GRN
08:29
V
19 °C 10 km+ - 050° 050° 8 kt METAR EHVL 100629Z AUTO 05008KT 030V090 9999 SCT010 19/16 Q1028 GRN
08:25
V
19 °C 10 km+ - 050° 050° 7 kt METAR EHVL 100625Z AUTO 05007KT 9999 FEW010 19/16 Q1028 BLU
07:55
V
18 °C 10 km+ - 050° 050° 7 kt METAR EHVL 100555Z AUTO 05007KT 9999 NCD 18/16 Q1028 BLU
07:30
V
17 °C 10 km+ - 050° 050° 6 kt METAR EHVL 100530Z AUTO 05006KT 9999 FEW014 17/16 Q1028 BLU
07:25
M
17 °C 10 km+ 1.400 ft 050° 050° 7 kt METAR EHVL 100525Z AUTO 05007KT 9999 SCT011 BKN014 17/16 Q1028 GRN
06:55
M
16 °C 10 km+ 1.200 ft 050° 050° 6 kt METAR EHVL 100455Z AUTO 05006KT 9999 BKN012 BKN410 16/15 Q1028 GRN
06:43
V
16 °C 10 km+ - 050° 050° 6 kt METAR EHVL 100443Z AUTO 05006KT 9999 FEW012 16/15 Q1028 BLU
06:26
M
16 °C 10 km+ 1.300 ft 050° 050° 6 kt METAR EHVL 100426Z AUTO 05006KT 9999 SCT011 BKN013 16/15 Q1028 GRN
06:25
V
16 °C 10 km+ - 050° 050° 5 kt METAR EHVL 100425Z AUTO 05005KT 9999 SCT011 SCT013 16/15 Q1028 GRN
06:10
M
16 °C 10 km+ 1.100 ft 070° 070° 5 kt METAR EHVL 100410Z AUTO 07005KT 9999 BKN011 BKN014 16/15 Q1028 GRN
06:06
V
16 °C 10 km+ - 080° 080° 6 kt METAR EHVL 100406Z AUTO 08006KT 9999 SCT011 16/15 Q1028 GRN
06:01
V
16 °C 10 km+ - 080° 080° 7 kt METAR EHVL 100401Z AUTO 08007KT 9999 FEW011 SCT014 16/15 Q1028 GRN
05:55
V
16 °C 10 km+ - 080° 080° 7 kt METAR EHVL 100355Z AUTO 08007KT 9999 FEW011 16/15 Q1028 BLU
05:25
V
16 °C 10 km+ - 090° 090° 9 kt METAR EHVL 100325Z AUTO 09009KT 9999 SCT400 16/15 Q1028 BLU
04:55
V
16 °C 10 km+ - 090° 090° 10 kt METAR EHVL 100255Z AUTO 09010KT 9999 NCD 16/15 Q1028 BLU
04:25
V
16 °C 10 km+ - 090° 090° 9 kt METAR EHVL 100225Z AUTO 09009KT 9999 NCD 16/15 Q1028 BLU
03:55
V
15 °C 10 km+ - 080° 080° 6 kt METAR EHVL 100155Z AUTO 08006KT 9999 NCD 15/14 Q1028 BLU
03:25
V
15 °C 10 km+ - 070° 070° 7 kt METAR EHVL 100125Z AUTO 07007KT 9999 NCD 15/14 Q1028 BLU
02:55
V
15 °C 10 km+ - 060° 060° 8 kt METAR EHVL 100055Z AUTO 06008KT 9999 NCD 15/14 Q1028 BLU
02:25
V
16 °C 10 km+ - 060° 060° 7 kt METAR EHVL 100025Z AUTO 06007KT 9999 NCD 16/14 Q1028 BLU RMK CB INFO NOT AVBL
01:55
V
16 °C 10 km+ - 050° 050° 9 kt METAR EHVL 092355Z AUTO 05009KT 9999 FEW330 16/14 Q1029 BLU
01:25
V
16 °C 10 km+ - 050° 050° 9 kt METAR EHVL 092325Z AUTO 05009KT 9999 NCD 16/14 Q1029 BLU
00:55
V
16 °C 10 km+ - 050° 050° 9 kt METAR EHVL 092255Z AUTO 05009KT 9999 NCD 16/14 Q1029 BLU
00:25
V
16 °C 10 km+ - 050° 050° 8 kt METAR EHVL 092225Z AUTO 05008KT 9999 NCD 16/14 Q1029 BLU

9 agosto 2022

Tempo Codice Tempo metereologico Temp. Vista Base nuvolosa Vento METAR/SPECI
23:55
V
16 °C 10 km+ - 050° 050° 8 kt METAR EHVL 092155Z AUTO 05008KT 9999 FEW340 16/14 Q1029 BLU
23:25
V
16 °C 10 km+ 34.000 ft 050° 050° 9 kt METAR EHVL 092125Z AUTO 05009KT 9999 OVC340 16/14 Q1029 BLU
22:55
V
17 °C 10 km+ 34.000 ft 060° 060° 8 kt METAR EHVL 092055Z AUTO 06008KT 9999 OVC340 17/14 Q1029 BLU
22:25
V
17 °C 10 km+ 35.000 ft 060° 060° 8 kt METAR EHVL 092025Z AUTO 06008KT 9999 OVC350 17/14 Q1029 BLU
21:55
V
17 °C 10 km+ 36.000 ft 060° 060° 8 kt METAR EHVL 091955Z AUTO 06008KT 9999 BKN360 17/14 Q1029 BLU
21:25
V
17 °C 10 km+ 38.000 ft 050° 050° 8 kt METAR EHVL 091925Z AUTO 05008KT 9999 BKN380 17/14 Q1029 BLU
20:55
V
18 °C 10 km+ 40.000 ft 040° 040° 10 kt METAR EHVL 091855Z AUTO 04010KT 9999 BKN400 18/14 Q1029 BLU
20:25
V
19 °C 10 km+ - 040° 040° 10 kt METAR EHVL 091825Z AUTO 04010KT 9999 NCD 19/14 Q1029 BLU
19:55
V
20 °C 10 km+ - 050° 050° 10 kt METAR EHVL 091755Z AUTO 05010KT 9999 NCD 20/14 Q1029 BLU
19:25
V
20 °C 10 km+ - 040° 040° 12 kt METAR EHVL 091725Z AUTO 04012KT 9999 NCD 20/13 Q1029 BLU
18:55
V
20 °C 10 km+ - 030° 030° 12 kt METAR EHVL 091655Z AUTO 03012KT 9999 NCD 20/14 Q1029 BLU
18:25
V
21 °C 10 km+ - 030° 030° 13 kt METAR EHVL 091625Z AUTO 03013KT 9999 NCD 21/15 Q1029 BLU
17:55
V
21 °C 10 km+ - 020° 020° 12 kt METAR EHVL 091555Z AUTO 02012KT 9999 NCD 21/15 Q1029 BLU
17:25
V
21 °C 10 km+ - 020° 020° 12 kt METAR EHVL 091525Z AUTO 02012KT 9999 SCT360 21/14 Q1029 BLU
16:55
V
21 °C 10 km+ - 020° 020° 10 kt METAR EHVL 091455Z AUTO 02010KT 9999 FEW320 21/15 Q1029 BLU
16:25
V
22 °C 10 km+ 32.000 ft 010° 010° 10 kt METAR EHVL 091425Z AUTO 01010KT 9999 OVC320 22/15 Q1029 BLU
15:55
V
22 °C 10 km+ 36.000 ft 010° 010° 9 kt METAR EHVL 091355Z AUTO 01009KT 9999 BKN360 22/15 Q1030 BLU
15:25
V
22 °C 10 km+ 34.000 ft 010° 010° 9 kt METAR EHVL 091325Z AUTO 01009KT 9999 BKN340 22/15 Q1030 BLU
14:55
V
22 °C 10 km+ - 010° 010° 8 kt METAR EHVL 091255Z AUTO 01008KT 9999 NCD 22/15 Q1030 BLU
14:25
V
22 °C 10 km+ - 360° 360° 8 kt METAR EHVL 091225Z AUTO 36008KT 330V030 9999 NCD 22/14 Q1030 BLU
13:55
V
22 °C 10 km+ - 360° 360° 8 kt METAR EHVL 091155Z AUTO 36008KT 9999 FEW370 22/15 Q1030 BLU
13:25
V
22 °C 10 km+ 30.000 ft 360° 360° 7 kt METAR EHVL 091125Z AUTO 36007KT 9999 OVC300 22/15 Q1030 BLU
12:55
V
21 °C 10 km+ 33.000 ft 010° 010° 6 kt METAR EHVL 091055Z AUTO 01006KT 9999 BKN330 21/14 Q1030 BLU
12:25
V
21 °C 10 km+ 37.000 ft 360° 360° 7 kt METAR EHVL 091025Z AUTO 36007KT 9999 OVC370 21/14 Q1030 BLU
11:55
V
19 °C 10 km+ - 010° 010° 5 kt METAR EHVL 090955Z AUTO 01005KT 9999 FEW027 19/14 Q1030 BLU
11:42
V
20 °C 10 km+ - 360° 360° 5 kt METAR EHVL 090942Z AUTO 36005KT 320V020 9999 FEW024 SCT380 20/14 Q1030 BLU
11:40
M
20 °C 10 km+ 2.700 ft 350° 350° 5 kt METAR EHVL 090940Z AUTO 35005KT 320V020 9999 SCT024 BKN027 BKN380 20/14 Q1030 WHT
11:25
V
21 °C 10 km+ - 350° 350° 4 kt METAR EHVL 090925Z AUTO 35004KT 320V040 9999 FEW028 SCT380 21/14 Q1030 BLU
10:55
V
21 °C 10 km+ - 110° 110° 4 kt METAR EHVL 090855Z AUTO 11004KT 060V140 9999 NCD 21/11 Q1030 BLU
10:25
V
20 °C 10 km+ - 130° 130° 4 kt METAR EHVL 090825Z AUTO 13004KT 070V170 9999 FEW024 20/11 Q1030 BLU
10:11
M
21 °C 10 km+ 2.500 ft 120° 120° 5 kt METAR EHVL 090811Z AUTO 12005KT 9999 FEW021 BKN025 21/14 Q1030 BLU
09:55
M
20 °C 10 km+ 2.200 ft 110° 110° 4 kt METAR EHVL 090755Z AUTO 11004KT 040V200 9999 SCT017 BKN022 20/14 Q1030 WHT
09:38
M
20 °C 10 km+ 1.900 ft Var Var 1 kt METAR EHVL 090738Z AUTO VRB01KT 9999 SCT016 BKN019 BKN028 20/14 Q1030 WHT
09:37
V
19 °C 10 km+ - Var Var 1 kt METAR EHVL 090737Z AUTO VRB01KT 9999 FEW016 SCT019 19/15 Q1030 WHT
09:25
V
19 °C 10 km+ - 060° 060° 3 kt METAR EHVL 090725Z AUTO 06003KT 030V090 9999 NCD 19/15 Q1029 BLU
08:55
V
19 °C 10 km+ - 060° 060° 3 kt METAR EHVL 090655Z AUTO 06003KT 030V090 9999 NCD 19/15 Q1029 BLU
08:25
V
18 °C 10 km+ - 050° 050° 2 kt METAR EHVL 090625Z AUTO 05002KT 9999 NCD 18/16 Q1029 BLU
07:55
V
16 °C 10 km+ - 060° 060° 3 kt METAR EHVL 090555Z AUTO 06003KT 9999 NCD 16/16 Q1029 BLU
07:25
V
15 °C 10 km+ - 050° 050° 4 kt METAR EHVL 090525Z AUTO 05004KT 9999 NCD 15/15 Q1029 BLU
07:10
V
15 °C 10 km+ - 040° 040° 4 kt METAR EHVL 090510Z AUTO 04004KT 9999 FEW014 15/14 Q1029 BLU
07:06
V
14 °C 10 km+ - 050° 050° 4 kt METAR EHVL 090506Z AUTO 05004KT 9999 SCT014 SCT017 14/14 Q1029 GRN
06:59
V
14 °C 10 km+ - 040° 040° 4 kt METAR EHVL 090459Z AUTO 04004KT 9999 FEW014 SCT016 14/14 Q1029 WHT
06:55
V
14 °C 10 km+ - 050° 050° 4 kt METAR EHVL 090455Z AUTO 05004KT 9999 FEW014 14/13 Q1029 BLU
06:25
V
13 °C 10 km+ - 050° 050° 5 kt METAR EHVL 090425Z AUTO 05005KT 9999 FEW013 13/13 Q1029 BLU
06:16
V
12 °C 10 km+ - 060° 060° 5 kt METAR EHVL 090416Z AUTO 06005KT 9999 SCT013 12/12 Q1028 GRN
05:55
V
12 °C 10 km+ - 060° 060° 5 kt METAR EHVL 090355Z AUTO 06005KT 9999 NCD 12/12 Q1028 BLU
05:25
V
13 °C 10 km+ - 040° 040° 5 kt METAR EHVL 090325Z AUTO 04005KT 9999 NCD 13/13 Q1028 BLU
04:55
V
13 °C 10 km+ - 060° 060° 6 kt METAR EHVL 090255Z AUTO 06006KT 9999 NCD 13/12 Q1028 BLU
04:25
V
13 °C 10 km+ - 060° 060° 7 kt METAR EHVL 090225Z AUTO 06007KT 9999 NCD 13/12 Q1028 BLU
03:55
V
13 °C 10 km+ - 050° 050° 7 kt METAR EHVL 090155Z AUTO 05007KT 9999 NCD 13/12 Q1028 BLU
03:25
V
13 °C 10 km+ - 050° 050° 5 kt METAR EHVL 090125Z AUTO 05005KT 9999 NCD 13/12 Q1028 BLU
02:55
V
13 °C 10 km+ - 050° 050° 5 kt METAR EHVL 090055Z AUTO 05005KT 9999 NCD 13/13 Q1028 BLU
02:25
V
13 °C 10 km+ - 060° 060° 7 kt METAR EHVL 090025Z AUTO 06007KT 9999 NCD 13/12 Q1028 BLU RMK CB INFO NOT AVBL
01:55
V
13 °C 10 km+ - 060° 060° 6 kt METAR EHVL 082355Z AUTO 06006KT 9999 NCD 13/12 Q1028 BLU
01:25
V
14 °C 10 km+ - 060° 060° 6 kt METAR EHVL 082325Z AUTO 06006KT 9999 NCD 14/13 Q1028 BLU
00:55
V
14 °C 10 km+ - 070° 070° 5 kt METAR EHVL 082255Z AUTO 07005KT 9999 NCD 14/13 Q1028 BLU
00:25
V
14 °C 10 km+ - 060° 060° 6 kt METAR EHVL 082225Z AUTO 06006KT 9999 NCD 14/13 Q1028 BLU

8 agosto 2022

Tempo Codice Tempo metereologico Temp. Vista Base nuvolosa Vento METAR/SPECI
23:55
V
14 °C 10 km+ - 050° 050° 6 kt METAR EHVL 082155Z AUTO 05006KT 9999 FEW016 14/13 Q1028 BLU
23:25
V
15 °C 10 km+ - 050° 050° 6 kt METAR EHVL 082125Z AUTO 05006KT 9999 NCD 15/13 Q1028 BLU
22:55
V
16 °C 10 km+ - 050° 050° 7 kt METAR EHVL 082055Z AUTO 05007KT 9999 NCD 16/14 Q1028 BLU
22:25
V
16 °C 10 km+ - 030° 030° 8 kt METAR EHVL 082025Z AUTO 03008KT 9999 NCD 16/14 Q1028 BLU
21:55
V
17 °C 10 km+ - 020° 020° 9 kt METAR EHVL 081955Z AUTO 02009KT 9999 FEW016 17/14 Q1028 BLU
21:40
V
17 °C 10 km+ - 020° 020° 9 kt METAR EHVL 081940Z AUTO 02009KT 9999 SCT016 17/14 Q1028 WHT
21:25
V
17 °C 10 km+ - 020° 020° 9 kt METAR EHVL 081925Z AUTO 02009KT 9999 FEW016 17/14 Q1028 BLU
20:55
V
18 °C 10 km+ - 020° 020° 9 kt METAR EHVL 081855Z AUTO 02009KT 9999 NCD 18/14 Q1028 BLU
20:25
V
19 °C 10 km+ - 020° 020° 9 kt METAR EHVL 081825Z AUTO 02009KT 9999 NCD 19/15 Q1027 BLU
19:55
V
19 °C 10 km+ - 020° 020° 10 kt METAR EHVL 081755Z AUTO 02010KT 9999 NCD 19/15 Q1027 BLU
19:25
V
20 °C 10 km+ - 020° 020° 10 kt METAR EHVL 081725Z AUTO 02010KT 9999 NCD 20/15 Q1027 BLU
18:55
V
20 °C 10 km+ - 030° 030° 9 kt METAR EHVL 081655Z AUTO 03009KT 9999 NCD 20/15 Q1027 BLU
18:25
V
20 °C 10 km+ - 020° 020° 9 kt METAR EHVL 081625Z AUTO 02009KT 9999 NCD 20/15 Q1027 BLU
17:55
V
20 °C 10 km+ - 010° 010° 10 kt METAR EHVL 081555Z AUTO 01010KT 9999 NCD 20/15 Q1027 BLU
17:25
V
21 °C 10 km+ - 360° 360° 9 kt METAR EHVL 081525Z AUTO 36009KT 9999 NCD 21/15 Q1027 BLU
16:55
V
21 °C 10 km+ - 360° 360° 10 kt METAR EHVL 081455Z AUTO 36010KT 9999 FEW016 SCT380 21/15 Q1027 BLU
Dati più vecchi

Noi e le terze parti seguiamo il tuo comportamento in internet sul nostro sito web con i cookie. Se continui, riteniamo che tu sia d'accordo con la nostra politica sui cookie. Per saperne di più